sensor_id;sensor_type;location;lat;lon;timestamp;P1;durP1;ratioP1;P2;durP2;ratioP2
65230;SDS011;51813;40.666;16.602;2023-05-25T00:00:17;5.47;;;3.70;;
65230;SDS011;51813;40.666;16.602;2023-05-25T00:02:43;4.70;;;3.80;;
65230;SDS011;51813;40.666;16.602;2023-05-25T00:05:10;4.25;;;3.47;;
65230;SDS011;51813;40.666;16.602;2023-05-25T00:07:36;4.03;;;3.50;;
65230;SDS011;51813;40.666;16.602;2023-05-25T00:10:03;5.32;;;3.90;;
65230;SDS011;51813;40.666;16.602;2023-05-25T00:12:30;5.85;;;3.80;;
65230;SDS011;51813;40.666;16.602;2023-05-25T00:14:56;4.93;;;3.85;;
65230;SDS011;51813;40.666;16.602;2023-05-25T00:17:22;5.25;;;3.67;;
65230;SDS011;51813;40.666;16.602;2023-05-25T00:19:48;5.82;;;3.90;;
65230;SDS011;51813;40.666;16.602;2023-05-25T00:22:14;5.07;;;3.90;;
65230;SDS011;51813;40.666;16.602;2023-05-25T00:24:40;5.82;;;3.80;;
65230;SDS011;51813;40.666;16.602;2023-05-25T00:27:06;5.20;;;3.65;;
65230;SDS011;51813;40.666;16.602;2023-05-25T00:29:32;4.55;;;3.80;;
65230;SDS011;51813;40.666;16.602;2023-05-25T00:32:00;5.30;;;4.00;;
65230;SDS011;51813;40.666;16.602;2023-05-25T00:34:26;5.55;;;4.20;;
65230;SDS011;51813;40.666;16.602;2023-05-25T00:36:52;5.85;;;4.10;;
65230;SDS011;51813;40.666;16.602;2023-05-25T00:39:18;5.50;;;4.10;;
65230;SDS011;51813;40.666;16.602;2023-05-25T00:41:46;4.88;;;3.60;;
65230;SDS011;51813;40.666;16.602;2023-05-25T00:44:13;5.63;;;3.97;;
65230;SDS011;51813;40.666;16.602;2023-05-25T00:46:50;6.57;;;4.07;;
65230;SDS011;51813;40.666;16.602;2023-05-25T00:49:20;5.10;;;4.10;;
65230;SDS011;51813;40.666;16.602;2023-05-25T00:51:50;4.85;;;3.90;;
65230;SDS011;51813;40.666;16.602;2023-05-25T00:54:17;5.13;;;3.75;;
65230;SDS011;51813;40.666;16.602;2023-05-25T00:56:45;5.50;;;3.50;;
65230;SDS011;51813;40.666;16.602;2023-05-25T00:59:16;5.78;;;4.43;;
65230;SDS011;51813;40.666;16.602;2023-05-25T01:01:46;5.40;;;3.88;;
65230;SDS011;51813;40.666;16.602;2023-05-25T01:04:14;5.10;;;3.92;;
65230;SDS011;51813;40.666;16.602;2023-05-25T01:06:43;5.43;;;3.95;;
65230;SDS011;51813;40.666;16.602;2023-05-25T01:09:12;5.97;;;4.40;;
65230;SDS011;51813;40.666;16.602;2023-05-25T01:11:42;5.47;;;3.90;;
65230;SDS011;51813;40.666;16.602;2023-05-25T01:14:12;5.43;;;4.07;;
65230;SDS011;51813;40.666;16.602;2023-05-25T01:16:39;5.30;;;4.18;;
65230;SDS011;51813;40.666;16.602;2023-05-25T01:19:06;5.95;;;4.00;;
65230;SDS011;51813;40.666;16.602;2023-05-25T01:21:36;5.38;;;4.07;;
65230;SDS011;51813;40.666;16.602;2023-05-25T01:26:57;5.65;;;3.90;;
65230;SDS011;51813;40.666;16.602;2023-05-25T01:29:32;5.43;;;4.00;;
65230;SDS011;51813;40.666;16.602;2023-05-25T01:31:59;4.95;;;3.67;;
65230;SDS011;51813;40.666;16.602;2023-05-25T01:34:27;5.97;;;4.00;;
65230;SDS011;51813;40.666;16.602;2023-05-25T01:36:55;5.43;;;3.92;;
65230;SDS011;51813;40.666;16.602;2023-05-25T01:39:21;5.57;;;4.20;;
65230;SDS011;51813;40.666;16.602;2023-05-25T01:41:47;5.53;;;3.85;;
65230;SDS011;51813;40.666;16.602;2023-05-25T01:44:13;5.65;;;3.75;;
65230;SDS011;51813;40.666;16.602;2023-05-25T01:46:39;5.53;;;3.90;;
65230;SDS011;51813;40.666;16.602;2023-05-25T01:54:51;5.05;;;4.10;;
65230;SDS011;51813;40.666;16.602;2023-05-25T01:57:21;6.20;;;4.03;;
65230;SDS011;51813;40.666;16.602;2023-05-25T01:59:49;4.50;;;3.65;;
65230;SDS011;51813;40.666;16.602;2023-05-25T02:02:18;7.28;;;4.20;;
65230;SDS011;51813;40.666;16.602;2023-05-25T02:04:44;5.13;;;3.80;;
65230;SDS011;51813;40.666;16.602;2023-05-25T02:07:11;5.20;;;3.90;;
65230;SDS011;51813;40.666;16.602;2023-05-25T02:09:36;6.05;;;4.13;;
65230;SDS011;51813;40.666;16.602;2023-05-25T02:12:02;5.85;;;3.90;;
65230;SDS011;51813;40.666;16.602;2023-05-25T02:14:28;5.82;;;4.20;;
65230;SDS011;51813;40.666;16.602;2023-05-25T02:16:54;5.78;;;3.83;;
65230;SDS011;51813;40.666;16.602;2023-05-25T02:19:21;5.47;;;4.18;;
65230;SDS011;51813;40.666;16.602;2023-05-25T02:21:47;6.35;;;4.22;;
65230;SDS011;51813;40.666;16.602;2023-05-25T02:24:13;5.20;;;3.70;;
65230;SDS011;51813;40.666;16.602;2023-05-25T02:26:38;5.63;;;4.18;;
65230;SDS011;51813;40.666;16.602;2023-05-25T02:29:04;6.28;;;3.80;;
65230;SDS011;51813;40.666;16.602;2023-05-25T02:31:30;5.30;;;4.03;;
65230;SDS011;51813;40.666;16.602;2023-05-25T02:33:56;5.85;;;4.10;;
65230;SDS011;51813;40.666;16.602;2023-05-25T02:36:22;6.05;;;4.10;;
65230;SDS011;51813;40.666;16.602;2023-05-25T02:38:48;5.10;;;4.20;;
65230;SDS011;51813;40.666;16.602;2023-05-25T02:41:17;6.50;;;4.20;;
65230;SDS011;51813;40.666;16.602;2023-05-25T02:43:44;5.55;;;3.75;;
65230;SDS011;51813;40.666;16.602;2023-05-25T02:46:09;7.07;;;4.30;;
65230;SDS011;51813;40.666;16.602;2023-05-25T02:48:35;5.53;;;4.28;;
65230;SDS011;51813;40.666;16.602;2023-05-25T02:51:01;5.53;;;4.18;;
65230;SDS011;51813;40.666;16.602;2023-05-25T02:53:27;6.60;;;4.50;;
65230;SDS011;51813;40.666;16.602;2023-05-25T02:55:53;6.25;;;4.40;;
65230;SDS011;51813;40.666;16.602;2023-05-25T02:58:20;6.15;;;4.22;;
65230;SDS011;51813;40.666;16.602;2023-05-25T03:00:46;4.95;;;3.65;;
65230;SDS011;51813;40.666;16.602;2023-05-25T03:03:12;5.82;;;4.30;;
65230;SDS011;51813;40.666;16.602;2023-05-25T03:05:38;5.72;;;4.15;;
65230;SDS011;51813;40.666;16.602;2023-05-25T03:08:03;6.22;;;4.15;;
65230;SDS011;51813;40.666;16.602;2023-05-25T03:10:29;5.57;;;4.60;;
65230;SDS011;51813;40.666;16.602;2023-05-25T03:12:55;6.20;;;4.60;;
65230;SDS011;51813;40.666;16.602;2023-05-25T03:15:20;6.15;;;4.35;;
65230;SDS011;51813;40.666;16.602;2023-05-25T03:17:47;6.13;;;4.32;;
65230;SDS011;51813;40.666;16.602;2023-05-25T03:20:13;6.03;;;4.22;;
65230;SDS011;51813;40.666;16.602;2023-05-25T03:22:40;6.10;;;4.60;;
65230;SDS011;51813;40.666;16.602;2023-05-25T03:25:07;5.65;;;4.30;;
65230;SDS011;51813;40.666;16.602;2023-05-25T03:27:35;6.43;;;4.55;;
65230;SDS011;51813;40.666;16.602;2023-05-25T03:30:01;5.65;;;4.50;;
65230;SDS011;51813;40.666;16.602;2023-05-25T03:32:27;6.93;;;4.43;;
65230;SDS011;51813;40.666;16.602;2023-05-25T03:34:52;5.82;;;4.85;;
65230;SDS011;51813;40.666;16.602;2023-05-25T03:37:18;6.18;;;4.60;;
65230;SDS011;51813;40.666;16.602;2023-05-25T03:39:44;6.78;;;4.75;;
65230;SDS011;51813;40.666;16.602;2023-05-25T03:42:09;5.95;;;4.70;;
65230;SDS011;51813;40.666;16.602;2023-05-25T03:44:35;7.30;;;4.43;;
65230;SDS011;51813;40.666;16.602;2023-05-25T03:47:01;7.60;;;4.93;;
65230;SDS011;51813;40.666;16.602;2023-05-25T03:49:26;6.43;;;4.65;;
65230;SDS011;51813;40.666;16.602;2023-05-25T03:51:52;6.05;;;4.55;;
65230;SDS011;51813;40.666;16.602;2023-05-25T03:54:18;6.18;;;4.57;;
65230;SDS011;51813;40.666;16.602;2023-05-25T03:56:43;5.85;;;4.60;;
65230;SDS011;51813;40.666;16.602;2023-05-25T03:59:09;6.35;;;4.90;;
65230;SDS011;51813;40.666;16.602;2023-05-25T04:01:35;5.90;;;4.55;;
65230;SDS011;51813;40.666;16.602;2023-05-25T04:04:03;6.43;;;4.85;;
65230;SDS011;51813;40.666;16.602;2023-05-25T04:06:29;5.88;;;4.38;;
65230;SDS011;51813;40.666;16.602;2023-05-25T04:08:55;6.03;;;4.15;;
65230;SDS011;51813;40.666;16.602;2023-05-25T04:11:21;6.88;;;4.78;;
65230;SDS011;51813;40.666;16.602;2023-05-25T04:13:49;6.20;;;4.57;;
65230;SDS011;51813;40.666;16.602;2023-05-25T04:16:15;6.20;;;4.50;;
65230;SDS011;51813;40.666;16.602;2023-05-25T04:18:41;6.20;;;4.90;;
65230;SDS011;51813;40.666;16.602;2023-05-25T04:21:06;6.25;;;4.22;;
65230;SDS011;51813;40.666;16.602;2023-05-25T04:23:32;6.57;;;4.55;;
65230;SDS011;51813;40.666;16.602;2023-05-25T04:25:58;5.85;;;4.80;;
65230;SDS011;51813;40.666;16.602;2023-05-25T04:28:24;7.75;;;4.82;;
65230;SDS011;51813;40.666;16.602;2023-05-25T04:30:52;6.43;;;4.80;;
65230;SDS011;51813;40.666;16.602;2023-05-25T04:33:21;7.63;;;4.68;;
65230;SDS011;51813;40.666;16.602;2023-05-25T04:35:47;6.03;;;4.43;;
65230;SDS011;51813;40.666;16.602;2023-05-25T04:38:14;6.35;;;4.80;;
65230;SDS011;51813;40.666;16.602;2023-05-25T04:40:44;7.63;;;4.80;;
65230;SDS011;51813;40.666;16.602;2023-05-25T04:43:12;6.40;;;4.60;;
65230;SDS011;51813;40.666;16.602;2023-05-25T04:45:42;6.05;;;4.55;;
65230;SDS011;51813;40.666;16.602;2023-05-25T04:48:10;6.35;;;4.60;;
65230;SDS011;51813;40.666;16.602;2023-05-25T04:50:37;6.10;;;4.70;;
65230;SDS011;51813;40.666;16.602;2023-05-25T04:53:06;7.90;;;4.90;;
65230;SDS011;51813;40.666;16.602;2023-05-25T04:55:32;5.85;;;4.35;;
65230;SDS011;51813;40.666;16.602;2023-05-25T04:57:58;6.43;;;5.10;;
65230;SDS011;51813;40.666;16.602;2023-05-25T05:00:23;8.10;;;4.80;;
65230;SDS011;51813;40.666;16.602;2023-05-25T05:02:49;6.78;;;4.60;;
65230;SDS011;51813;40.666;16.602;2023-05-25T05:05:18;7.18;;;4.70;;
65230;SDS011;51813;40.666;16.602;2023-05-25T05:07:43;6.20;;;4.45;;
65230;SDS011;51813;40.666;16.602;2023-05-25T05:10:09;6.95;;;4.88;;
65230;SDS011;51813;40.666;16.602;2023-05-25T05:12:36;5.30;;;4.50;;
65230;SDS011;51813;40.666;16.602;2023-05-25T05:15:02;6.13;;;4.85;;
65230;SDS011;51813;40.666;16.602;2023-05-25T05:17:28;6.63;;;5.22;;
65230;SDS011;51813;40.666;16.602;2023-05-25T05:19:54;6.00;;;4.70;;
65230;SDS011;51813;40.666;16.602;2023-05-25T05:22:20;5.63;;;4.60;;
65230;SDS011;51813;40.666;16.602;2023-05-25T05:24:46;7.78;;;5.00;;
65230;SDS011;51813;40.666;16.602;2023-05-25T05:27:12;7.13;;;4.70;;
65230;SDS011;51813;40.666;16.602;2023-05-25T05:29:38;6.72;;;4.90;;
65230;SDS011;51813;40.666;16.602;2023-05-25T05:32:05;6.60;;;4.50;;
65230;SDS011;51813;40.666;16.602;2023-05-25T05:34:31;6.45;;;4.70;;
65230;SDS011;51813;40.666;16.602;2023-05-25T05:36:57;6.40;;;4.65;;
65230;SDS011;51813;40.666;16.602;2023-05-25T05:39:24;6.28;;;4.68;;
65230;SDS011;51813;40.666;16.602;2023-05-25T05:41:50;5.95;;;4.78;;
65230;SDS011;51813;40.666;16.602;2023-05-25T05:44:16;6.55;;;4.85;;
65230;SDS011;51813;40.666;16.602;2023-05-25T05:46:42;5.75;;;4.28;;
65230;SDS011;51813;40.666;16.602;2023-05-25T05:49:08;5.75;;;4.50;;
65230;SDS011;51813;40.666;16.602;2023-05-25T05:51:33;5.88;;;4.03;;
65230;SDS011;51813;40.666;16.602;2023-05-25T05:54:00;7.57;;;4.65;;
65230;SDS011;51813;40.666;16.602;2023-05-25T05:56:25;5.85;;;3.97;;
65230;SDS011;51813;40.666;16.602;2023-05-25T05:58:51;6.50;;;4.45;;
65230;SDS011;51813;40.666;16.602;2023-05-25T06:01:18;6.55;;;4.53;;
65230;SDS011;51813;40.666;16.602;2023-05-25T06:03:44;5.35;;;4.43;;
65230;SDS011;51813;40.666;16.602;2023-05-25T06:06:10;5.50;;;4.00;;
65230;SDS011;51813;40.666;16.602;2023-05-25T06:08:36;6.60;;;4.60;;
65230;SDS011;51813;40.666;16.602;2023-05-25T06:11:01;6.05;;;4.47;;
65230;SDS011;51813;40.666;16.602;2023-05-25T06:13:27;5.38;;;4.00;;
65230;SDS011;51813;40.666;16.602;2023-05-25T06:15:53;6.43;;;4.20;;
65230;SDS011;51813;40.666;16.602;2023-05-25T06:18:18;6.03;;;4.60;;
65230;SDS011;51813;40.666;16.602;2023-05-25T06:20:44;5.28;;;4.20;;
65230;SDS011;51813;40.666;16.602;2023-05-25T06:23:10;5.68;;;3.88;;
65230;SDS011;51813;40.666;16.602;2023-05-25T06:25:38;5.25;;;3.97;;
65230;SDS011;51813;40.666;16.602;2023-05-25T06:28:04;5.38;;;4.15;;
65230;SDS011;51813;40.666;16.602;2023-05-25T06:30:29;5.72;;;4.13;;
65230;SDS011;51813;40.666;16.602;2023-05-25T06:32:55;5.45;;;4.40;;
65230;SDS011;51813;40.666;16.602;2023-05-25T06:35:21;5.47;;;4.40;;
65230;SDS011;51813;40.666;16.602;2023-05-25T06:37:47;5.47;;;4.30;;
65230;SDS011;51813;40.666;16.602;2023-05-25T06:40:14;6.53;;;4.00;;
65230;SDS011;51813;40.666;16.602;2023-05-25T06:42:40;6.15;;;4.38;;
65230;SDS011;51813;40.666;16.602;2023-05-25T06:45:07;6.10;;;4.10;;
65230;SDS011;51813;40.666;16.602;2023-05-25T06:47:33;8.25;;;4.55;;
65230;SDS011;51813;40.666;16.602;2023-05-25T06:49:59;6.40;;;4.30;;
65230;SDS011;51813;40.666;16.602;2023-05-25T06:52:25;5.78;;;4.43;;
65230;SDS011;51813;40.666;16.602;2023-05-25T06:54:54;5.68;;;4.13;;
65230;SDS011;51813;40.666;16.602;2023-05-25T06:57:21;8.13;;;4.28;;
65230;SDS011;51813;40.666;16.602;2023-05-25T06:59:50;6.13;;;3.97;;
65230;SDS011;51813;40.666;16.602;2023-05-25T07:02:15;5.72;;;4.00;;
65230;SDS011;51813;40.666;16.602;2023-05-25T07:04:42;6.20;;;4.60;;
65230;SDS011;51813;40.666;16.602;2023-05-25T07:07:08;7.70;;;4.20;;
65230;SDS011;51813;40.666;16.602;2023-05-25T07:09:35;5.25;;;3.90;;
65230;SDS011;51813;40.666;16.602;2023-05-25T07:12:02;6.95;;;4.18;;
65230;SDS011;51813;40.666;16.602;2023-05-25T07:14:31;6.85;;;4.30;;
65230;SDS011;51813;40.666;16.602;2023-05-25T07:16:58;7.63;;;4.40;;
65230;SDS011;51813;40.666;16.602;2023-05-25T07:19:24;9.90;;;4.32;;
65230;SDS011;51813;40.666;16.602;2023-05-25T07:21:49;5.70;;;4.07;;
65230;SDS011;51813;40.666;16.602;2023-05-25T07:24:15;6.55;;;4.90;;
65230;SDS011;51813;40.666;16.602;2023-05-25T07:26:42;5.35;;;4.20;;
65230;SDS011;51813;40.666;16.602;2023-05-25T07:29:08;6.47;;;4.13;;
65230;SDS011;51813;40.666;16.602;2023-05-25T07:31:34;5.90;;;4.30;;
65230;SDS011;51813;40.666;16.602;2023-05-25T07:34:00;6.47;;;4.22;;
65230;SDS011;51813;40.666;16.602;2023-05-25T07:36:26;6.47;;;4.78;;
65230;SDS011;51813;40.666;16.602;2023-05-25T07:38:52;4.82;;;4.15;;
65230;SDS011;51813;40.666;16.602;2023-05-25T07:41:17;8.18;;;5.30;;
65230;SDS011;51813;40.666;16.602;2023-05-25T07:43:43;6.38;;;4.90;;
65230;SDS011;51813;40.666;16.602;2023-05-25T07:46:09;7.57;;;4.90;;
65230;SDS011;51813;40.666;16.602;2023-05-25T07:48:35;8.50;;;4.97;;
65230;SDS011;51813;40.666;16.602;2023-05-25T07:51:01;7.40;;;5.40;;
65230;SDS011;51813;40.666;16.602;2023-05-25T07:53:27;8.05;;;5.40;;
65230;SDS011;51813;40.666;16.602;2023-05-25T07:55:52;8.50;;;5.10;;
65230;SDS011;51813;40.666;16.602;2023-05-25T07:58:18;7.57;;;4.70;;
65230;SDS011;51813;40.666;16.602;2023-05-25T08:00:44;8.00;;;5.22;;
65230;SDS011;51813;40.666;16.602;2023-05-25T08:03:09;8.38;;;5.13;;
65230;SDS011;51813;40.666;16.602;2023-05-25T08:05:35;7.85;;;4.60;;
65230;SDS011;51813;40.666;16.602;2023-05-25T08:08:01;7.82;;;5.00;;
65230;SDS011;51813;40.666;16.602;2023-05-25T08:10:26;8.43;;;6.15;;
65230;SDS011;51813;40.666;16.602;2023-05-25T08:12:56;10.30;;;5.00;;
65230;SDS011;51813;40.666;16.602;2023-05-25T08:15:22;8.60;;;5.50;;
65230;SDS011;51813;40.666;16.602;2023-05-25T08:17:48;7.57;;;4.90;;
65230;SDS011;51813;40.666;16.602;2023-05-25T08:20:14;7.07;;;4.60;;
65230;SDS011;51813;40.666;16.602;2023-05-25T08:22:40;7.22;;;4.78;;
65230;SDS011;51813;40.666;16.602;2023-05-25T08:25:07;8.23;;;4.78;;
65230;SDS011;51813;40.666;16.602;2023-05-25T08:27:33;5.57;;;4.38;;
65230;SDS011;51813;40.666;16.602;2023-05-25T08:30:00;6.90;;;4.47;;
65230;SDS011;51813;40.666;16.602;2023-05-25T08:32:25;6.47;;;4.53;;
65230;SDS011;51813;40.666;16.602;2023-05-25T08:34:51;6.82;;;4.55;;
65230;SDS011;51813;40.666;16.602;2023-05-25T08:37:17;5.45;;;4.15;;
65230;SDS011;51813;40.666;16.602;2023-05-25T08:39:44;6.63;;;4.18;;
65230;SDS011;51813;40.666;16.602;2023-05-25T08:42:09;6.80;;;4.05;;
65230;SDS011;51813;40.666;16.602;2023-05-25T08:44:35;7.28;;;4.65;;
65230;SDS011;51813;40.666;16.602;2023-05-25T08:47:03;6.75;;;4.10;;
65230;SDS011;51813;40.666;16.602;2023-05-25T08:49:33;10.30;;;4.72;;
65230;SDS011;51813;40.666;16.602;2023-05-25T08:52:01;6.78;;;3.92;;
65230;SDS011;51813;40.666;16.602;2023-05-25T08:54:31;8.40;;;4.00;;
65230;SDS011;51813;40.666;16.602;2023-05-25T08:57:04;6.63;;;3.70;;
65230;SDS011;51813;40.666;16.602;2023-05-25T08:59:59;5.20;;;3.72;;
65230;SDS011;51813;40.666;16.602;2023-05-25T09:02:38;5.85;;;3.60;;
65230;SDS011;51813;40.666;16.602;2023-05-25T09:05:16;6.60;;;3.83;;
65230;SDS011;51813;40.666;16.602;2023-05-25T09:07:42;4.78;;;3.72;;
65230;SDS011;51813;40.666;16.602;2023-05-25T09:10:12;5.95;;;3.88;;
65230;SDS011;51813;40.666;16.602;2023-05-25T09:12:39;6.40;;;3.57;;
65230;SDS011;51813;40.666;16.602;2023-05-25T09:15:07;7.15;;;3.88;;
65230;SDS011;51813;40.666;16.602;2023-05-25T09:17:34;5.55;;;3.65;;
65230;SDS011;51813;40.666;16.602;2023-05-25T09:20:00;7.20;;;3.90;;
65230;SDS011;51813;40.666;16.602;2023-05-25T09:22:27;5.70;;;3.80;;
65230;SDS011;51813;40.666;16.602;2023-05-25T09:24:53;5.70;;;3.40;;
65230;SDS011;51813;40.666;16.602;2023-05-25T09:27:20;4.72;;;3.42;;
65230;SDS011;51813;40.666;16.602;2023-05-25T09:29:49;7.07;;;3.95;;
65230;SDS011;51813;40.666;16.602;2023-05-25T09:32:16;4.88;;;3.45;;
65230;SDS011;51813;40.666;16.602;2023-05-25T09:34:43;6.03;;;4.00;;
65230;SDS011;51813;40.666;16.602;2023-05-25T09:37:10;5.90;;;3.90;;
65230;SDS011;51813;40.666;16.602;2023-05-25T09:42:09;5.13;;;3.72;;
65230;SDS011;51813;40.666;16.602;2023-05-25T09:44:35;6.05;;;4.10;;
65230;SDS011;51813;40.666;16.602;2023-05-25T09:47:01;7.78;;;4.13;;
65230;SDS011;51813;40.666;16.602;2023-05-25T09:49:27;8.23;;;4.10;;
65230;SDS011;51813;40.666;16.602;2023-05-25T09:51:53;5.35;;;3.65;;
65230;SDS011;51813;40.666;16.602;2023-05-25T09:54:19;6.70;;;4.20;;
65230;SDS011;51813;40.666;16.602;2023-05-25T09:56:49;7.03;;;4.20;;
65230;SDS011;51813;40.666;16.602;2023-05-25T09:59:15;6.15;;;3.92;;
65230;SDS011;51813;40.666;16.602;2023-05-25T10:01:41;6.63;;;4.43;;
65230;SDS011;51813;40.666;16.602;2023-05-25T10:04:08;8.02;;;4.50;;
65230;SDS011;51813;40.666;16.602;2023-05-25T10:06:34;7.07;;;4.10;;
65230;SDS011;51813;40.666;16.602;2023-05-25T10:09:03;6.30;;;4.47;;
65230;SDS011;51813;40.666;16.602;2023-05-25T10:11:31;5.75;;;4.35;;
65230;SDS011;51813;40.666;16.602;2023-05-25T10:14:00;5.78;;;4.60;;
65230;SDS011;51813;40.666;16.602;2023-05-25T10:16:30;6.90;;;4.40;;
65230;SDS011;51813;40.666;16.602;2023-05-25T10:19:16;8.10;;;4.70;;
65230;SDS011;51813;40.666;16.602;2023-05-25T10:21:49;7.13;;;4.18;;
65230;SDS011;51813;40.666;16.602;2023-05-25T10:24:37;5.75;;;4.18;;
65230;SDS011;51813;40.666;16.602;2023-05-25T10:27:13;6.38;;;4.40;;
65230;SDS011;51813;40.666;16.602;2023-05-25T10:29:42;7.82;;;4.80;;
65230;SDS011;51813;40.666;16.602;2023-05-25T10:32:09;6.07;;;4.18;;
65230;SDS011;51813;40.666;16.602;2023-05-25T10:34:35;6.72;;;4.68;;
65230;SDS011;51813;40.666;16.602;2023-05-25T10:37:02;6.32;;;4.70;;
65230;SDS011;51813;40.666;16.602;2023-05-25T10:39:28;8.45;;;4.72;;
65230;SDS011;51813;40.666;16.602;2023-05-25T10:41:55;7.50;;;4.75;;
65230;SDS011;51813;40.666;16.602;2023-05-25T10:44:22;6.68;;;4.97;;
65230;SDS011;51813;40.666;16.602;2023-05-25T10:46:49;8.63;;;4.95;;
65230;SDS011;51813;40.666;16.602;2023-05-25T10:49:24;7.22;;;4.57;;
65230;SDS011;51813;40.666;16.602;2023-05-25T10:51:57;6.25;;;4.50;;
65230;SDS011;51813;40.666;16.602;2023-05-25T10:54:30;5.90;;;4.50;;
65230;SDS011;51813;40.666;16.602;2023-05-25T10:57:09;8.07;;;4.70;;
65230;SDS011;51813;40.666;16.602;2023-05-25T11:00:05;6.57;;;4.88;;
65230;SDS011;51813;40.666;16.602;2023-05-25T11:02:51;7.20;;;4.65;;
65230;SDS011;51813;40.666;16.602;2023-05-25T11:07:51;8.43;;;4.88;;
65230;SDS011;51813;40.666;16.602;2023-05-25T11:10:31;6.50;;;4.68;;
65230;SDS011;51813;40.666;16.602;2023-05-25T11:16:06;6.53;;;4.90;;
65230;SDS011;51813;40.666;16.602;2023-05-25T11:21:10;7.28;;;4.70;;
65230;SDS011;51813;40.666;16.602;2023-05-25T11:24:15;8.05;;;4.72;;
65230;SDS011;51813;40.666;16.602;2023-05-25T11:26:50;7.07;;;5.00;;
65230;SDS011;51813;40.666;16.602;2023-05-25T11:29:20;7.05;;;4.70;;
65230;SDS011;51813;40.666;16.602;2023-05-25T11:31:55;6.45;;;4.53;;
65230;SDS011;51813;40.666;16.602;2023-05-25T11:34:22;5.50;;;4.35;;
65230;SDS011;51813;40.666;16.602;2023-05-25T11:36:56;6.22;;;4.65;;
65230;SDS011;51813;40.666;16.602;2023-05-25T11:39:27;6.68;;;4.60;;
65230;SDS011;51813;40.666;16.602;2023-05-25T11:42:00;5.95;;;4.15;;
65230;SDS011;51813;40.666;16.602;2023-05-25T11:44:29;6.43;;;4.78;;
65230;SDS011;51813;40.666;16.602;2023-05-25T11:46:59;6.60;;;4.47;;
65230;SDS011;51813;40.666;16.602;2023-05-25T11:49:27;6.60;;;4.55;;
65230;SDS011;51813;40.666;16.602;2023-05-25T11:51:53;6.18;;;4.40;;
65230;SDS011;51813;40.666;16.602;2023-05-25T11:54:24;6.25;;;5.00;;
65230;SDS011;51813;40.666;16.602;2023-05-25T11:56:52;8.90;;;4.68;;
65230;SDS011;51813;40.666;16.602;2023-05-25T11:59:22;7.00;;;4.45;;
65230;SDS011;51813;40.666;16.602;2023-05-25T12:01:55;7.35;;;4.43;;
65230;SDS011;51813;40.666;16.602;2023-05-25T12:04:21;6.40;;;4.50;;
65230;SDS011;51813;40.666;16.602;2023-05-25T12:06:47;7.72;;;4.55;;
65230;SDS011;51813;40.666;16.602;2023-05-25T12:09:13;5.93;;;4.55;;
65230;SDS011;51813;40.666;16.602;2023-05-25T12:11:44;7.13;;;4.57;;
65230;SDS011;51813;40.666;16.602;2023-05-25T12:14:10;5.18;;;4.10;;
65230;SDS011;51813;40.666;16.602;2023-05-25T12:16:36;5.72;;;4.20;;
65230;SDS011;51813;40.666;16.602;2023-05-25T12:19:03;6.05;;;4.18;;
65230;SDS011;51813;40.666;16.602;2023-05-25T12:21:30;6.72;;;4.50;;
65230;SDS011;51813;40.666;16.602;2023-05-25T12:23:56;5.50;;;4.35;;
65230;SDS011;51813;40.666;16.602;2023-05-25T12:26:22;7.00;;;4.53;;
65230;SDS011;51813;40.666;16.602;2023-05-25T12:29:01;5.47;;;4.28;;
65230;SDS011;51813;40.666;16.602;2023-05-25T12:31:28;8.05;;;4.57;;
65230;SDS011;51813;40.666;16.602;2023-05-25T12:34:11;7.60;;;4.50;;
65230;SDS011;51813;40.666;16.602;2023-05-25T12:41:56;5.80;;;4.40;;
65230;SDS011;51813;40.666;16.602;2023-05-25T12:47:09;6.30;;;4.40;;
65230;SDS011;51813;40.666;16.602;2023-05-25T12:49:51;5.97;;;4.45;;
65230;SDS011;51813;40.666;16.602;2023-05-25T12:52:38;6.55;;;4.43;;
65230;SDS011;51813;40.666;16.602;2023-05-25T12:55:18;6.40;;;4.60;;
65230;SDS011;51813;40.666;16.602;2023-05-25T12:57:47;6.75;;;4.20;;
65230;SDS011;51813;40.666;16.602;2023-05-25T13:00:17;5.85;;;4.00;;
65230;SDS011;51813;40.666;16.602;2023-05-25T13:02:47;6.07;;;4.15;;
65230;SDS011;51813;40.666;16.602;2023-05-25T13:05:17;5.45;;;3.90;;
65230;SDS011;51813;40.666;16.602;2023-05-25T13:07:44;5.88;;;4.30;;
65230;SDS011;51813;40.666;16.602;2023-05-25T13:10:11;6.40;;;4.70;;
65230;SDS011;51813;40.666;16.602;2023-05-25T13:12:37;7.63;;;5.03;;
65230;SDS011;51813;40.666;16.602;2023-05-25T13:15:03;8.07;;;5.43;;
65230;SDS011;51813;40.666;16.602;2023-05-25T13:17:29;7.38;;;5.32;;
65230;SDS011;51813;40.666;16.602;2023-05-25T13:19:55;7.53;;;5.85;;
65230;SDS011;51813;40.666;16.602;2023-05-25T13:22:21;11.57;;;5.97;;
65230;SDS011;51813;40.666;16.602;2023-05-25T13:24:47;10.55;;;6.18;;
65230;SDS011;51813;40.666;16.602;2023-05-25T13:27:13;8.32;;;6.18;;
65230;SDS011;51813;40.666;16.602;2023-05-25T13:29:38;9.45;;;6.57;;
65230;SDS011;51813;40.666;16.602;2023-05-25T13:32:04;8.23;;;5.65;;
65230;SDS011;51813;40.666;16.602;2023-05-25T13:34:30;8.60;;;5.78;;
65230;SDS011;51813;40.666;16.602;2023-05-25T13:36:57;10.23;;;6.75;;
65230;SDS011;51813;40.666;16.602;2023-05-25T13:39:23;7.55;;;5.22;;
65230;SDS011;51813;40.666;16.602;2023-05-25T13:41:49;8.27;;;6.03;;
65230;SDS011;51813;40.666;16.602;2023-05-25T13:44:14;8.15;;;6.03;;
65230;SDS011;51813;40.666;16.602;2023-05-25T13:46:40;11.45;;;6.20;;
65230;SDS011;51813;40.666;16.602;2023-05-25T13:49:06;7.75;;;5.70;;
65230;SDS011;51813;40.666;16.602;2023-05-25T13:51:31;9.05;;;5.53;;
65230;SDS011;51813;40.666;16.602;2023-05-25T13:53:59;8.93;;;5.63;;
65230;SDS011;51813;40.666;16.602;2023-05-25T13:56:26;7.72;;;5.75;;
65230;SDS011;51813;40.666;16.602;2023-05-25T13:58:52;7.22;;;5.35;;
65230;SDS011;51813;40.666;16.602;2023-05-25T14:01:18;6.90;;;5.35;;
65230;SDS011;51813;40.666;16.602;2023-05-25T14:03:44;8.88;;;5.38;;
65230;SDS011;51813;40.666;16.602;2023-05-25T14:06:10;8.40;;;5.35;;
65230;SDS011;51813;40.666;16.602;2023-05-25T14:08:36;8.60;;;5.88;;
65230;SDS011;51813;40.666;16.602;2023-05-25T14:11:02;7.35;;;5.45;;
65230;SDS011;51813;40.666;16.602;2023-05-25T14:13:28;6.55;;;5.70;;
65230;SDS011;51813;40.666;16.602;2023-05-25T14:15:53;10.23;;;6.40;;
65230;SDS011;51813;40.666;16.602;2023-05-25T14:18:19;10.93;;;6.55;;
65230;SDS011;51813;40.666;16.602;2023-05-25T14:20:45;9.00;;;6.13;;
65230;SDS011;51813;40.666;16.602;2023-05-25T14:23:11;10.68;;;7.07;;
65230;SDS011;51813;40.666;16.602;2023-05-25T14:25:37;8.70;;;6.38;;
65230;SDS011;51813;40.666;16.602;2023-05-25T14:28:02;7.78;;;6.22;;
65230;SDS011;51813;40.666;16.602;2023-05-25T14:30:29;8.73;;;6.05;;
65230;SDS011;51813;40.666;16.602;2023-05-25T14:32:58;7.60;;;6.53;;
65230;SDS011;51813;40.666;16.602;2023-05-25T14:35:25;9.60;;;6.65;;
65230;SDS011;51813;40.666;16.602;2023-05-25T14:37:50;8.38;;;6.22;;
65230;SDS011;51813;40.666;16.602;2023-05-25T14:40:16;9.68;;;6.47;;
65230;SDS011;51813;40.666;16.602;2023-05-25T14:42:42;10.20;;;6.90;;
65230;SDS011;51813;40.666;16.602;2023-05-25T14:45:08;8.20;;;6.47;;
65230;SDS011;51813;40.666;16.602;2023-05-25T14:47:34;8.48;;;6.60;;
65230;SDS011;51813;40.666;16.602;2023-05-25T14:49:59;8.27;;;6.63;;
65230;SDS011;51813;40.666;16.602;2023-05-25T14:52:25;11.70;;;6.40;;
65230;SDS011;51813;40.666;16.602;2023-05-25T14:54:51;8.60;;;6.75;;
65230;SDS011;51813;40.666;16.602;2023-05-25T14:57:16;8.23;;;6.65;;
65230;SDS011;51813;40.666;16.602;2023-05-25T14:59:42;9.25;;;6.75;;
65230;SDS011;51813;40.666;16.602;2023-05-25T15:02:08;10.30;;;6.50;;